Time;durP1;ratioP1;P1;durP2;ratioP2;P2;SDS_P1;SDS_P2;PMS_P1;PMS_P2;Temp;Humidity;BMP_temperature;BMP_pressure;BME280_temperature;BME280_humidity;BME280_pressure;Samples;Min_cycle;Max_cycle;Signal;HPM_P1;HPM_P2
2021/12/29 00:00:58;;;;;;;;;;;9.30;99.90;;;;;;5100921;28;19931;-63
2021/12/29 00:03:23;;;;;;;;;;;9.30;99.90;;;;;;5104151;28;19916;-63
2021/12/29 00:05:49;;;;;;;;;;;9.30;99.90;;;;;;5084097;28;19917;-63
2021/12/29 00:08:14;;;;;;;;;;;9.30;99.90;;;;;;5103884;28;20015;-63
2021/12/29 00:10:40;;;;;;;;;;;9.30;99.90;;;;;;5101958;27;20378;-63
2021/12/29 00:13:06;;;;;;;;;;;9.30;99.90;;;;;;5096811;28;19916;-63
2021/12/29 00:15:32;;;;;;;;;;;9.40;99.90;;;;;;5082939;28;19927;-64
2021/12/29 00:17:58;;;;;;;;;;;9.40;99.90;;;;;;5094029;28;20969;-62
2021/12/29 00:20:28;;;;;;;;;;;9.40;99.90;;;;;;5099371;28;20548;-63
2021/12/29 00:23:01;;;;;;;;;;;9.40;99.90;;;;;;5084391;28;20034;-63
2021/12/29 00:25:27;;;;;;;;;;;9.30;99.90;;;;;;5104398;28;20394;-63
2021/12/29 00:27:55;;;;;;;;;;;9.40;99.90;;;;;;5101530;28;19944;-63
2021/12/29 00:30:21;;;;;;;;;;;9.30;99.90;;;;;;5080070;28;19976;-63
2021/12/29 00:32:47;;;;;;;;;;;9.30;99.90;;;;;;5106725;27;19972;-62
2021/12/29 00:35:14;;;;;;;;;;;9.30;99.90;;;;;;5105353;28;19939;-63
2021/12/29 00:37:40;;;;;;;;;;;9.40;99.90;;;;;;5103547;28;19968;-63
2021/12/29 00:40:06;;;;;;;;;;;9.30;99.90;;;;;;5083667;28;20546;-63
2021/12/29 00:42:32;;;;;;;;;;;9.30;99.90;;;;;;5101177;28;19926;-63
2021/12/29 00:44:57;;;;;;;;;;;9.40;99.90;;;;;;5106858;27;20275;-63
2021/12/29 00:47:23;;;;;;;;;;;9.30;99.90;;;;;;5104472;27;19927;-64
2021/12/29 00:49:48;;;;;;;;;;;9.30;99.90;;;;;;5102101;28;20081;-63
2021/12/29 00:52:14;;;;;;;;;;;9.30;99.90;;;;;;5100792;28;19927;-63
2021/12/29 00:54:40;;;;;;;;;;;9.40;99.90;;;;;;5106615;27;20123;-63
2021/12/29 00:57:06;;;;;;;;;;;9.40;99.90;;;;;;5108822;27;20395;-63
2021/12/29 00:59:31;;;;;;;;;;;9.30;99.90;;;;;;5104796;27;19928;-63
2021/12/29 01:01:57;;;;;;;;;;;9.30;99.90;;;;;;5106615;27;19922;-63
2021/12/29 01:04:22;;;;;;;;;;;9.30;99.90;;;;;;5110406;27;20030;-63
2021/12/29 01:06:48;;;;;;;;;;;9.30;99.90;;;;;;5104372;27;19919;-63
2021/12/29 01:09:14;;;;;;;;;;;9.30;99.90;;;;;;5096974;27;19938;-63
2021/12/29 01:11:39;;;;;;;;;;;9.30;99.90;;;;;;5117791;27;20002;-63
2021/12/29 01:14:07;;;;;;;;;;;9.30;99.90;;;;;;5115380;27;19955;-63
2021/12/29 01:19:04;;;;;;;;;;;9.30;99.90;;;;;;5089836;27;19920;-63
2021/12/29 01:21:31;;;;;;;;;;;9.40;99.90;;;;;;5117097;27;19922;-63
2021/12/29 01:23:57;;;;;;;;;;;9.40;99.90;;;;;;5125208;27;20437;-64
2021/12/29 01:26:23;;;;;;;;;;;9.40;99.90;;;;;;5101395;27;19951;-63
2021/12/29 01:28:48;;;;;;;;;;;9.30;99.90;;;;;;5097879;27;19920;-63
2021/12/29 01:31:14;;;;;;;;;;;9.40;99.90;;;;;;5105555;27;20006;-63
2021/12/29 01:33:40;;;;;;;;;;;9.40;99.90;;;;;;5099818;27;19946;-63
2021/12/29 01:36:05;;;;;;;;;;;9.40;99.90;;;;;;5104351;27;19969;-63
2021/12/29 01:38:30;;;;;;;;;;;9.40;99.90;;;;;;5114770;27;19920;-63
2021/12/29 01:40:56;;;;;;;;;;;9.40;99.90;;;;;;5112910;27;20398;-63
2021/12/29 01:43:22;;;;;;;;;;;9.40;99.90;;;;;;5116288;27;19931;-63
2021/12/29 01:45:47;;;;;;;;;;;9.30;99.90;;;;;;5112235;27;19920;-63
2021/12/29 01:48:15;;;;;;;;;;;9.30;99.90;;;;;;5124117;27;20002;-63
2021/12/29 01:50:44;;;;;;;;;;;9.30;99.90;;;;;;5106374;27;19944;-63
2021/12/29 01:53:12;;;;;;;;;;;9.30;99.90;;;;;;5120678;27;19994;-63
2021/12/29 01:55:39;;;;;;;;;;;9.30;99.90;;;;;;5117731;27;19950;-63
2021/12/29 01:58:05;;;;;;;;;;;9.30;99.90;;;;;;5089700;27;20537;-63
2021/12/29 02:00:31;;;;;;;;;;;9.30;99.90;;;;;;5104711;27;20028;-63
2021/12/29 02:02:57;;;;;;;;;;;9.30;99.90;;;;;;5105559;27;19926;-63
2021/12/29 02:05:23;;;;;;;;;;;9.30;99.90;;;;;;5100319;27;19915;-63
2021/12/29 02:07:48;;;;;;;;;;;9.30;99.90;;;;;;5112373;27;20010;-63
2021/12/29 02:10:15;;;;;;;;;;;9.30;99.90;;;;;;5115225;27;19923;-63
2021/12/29 02:12:42;;;;;;;;;;;9.30;99.90;;;;;;5091153;28;19924;-63
2021/12/29 02:15:09;;;;;;;;;;;9.30;99.90;;;;;;5110192;27;20022;-63
2021/12/29 02:17:34;;;;;;;;;;;9.30;99.90;;;;;;5092834;28;19924;-63
2021/12/29 02:20:02;;;;;;;;;;;9.30;99.90;;;;;;5097173;28;19939;-63
2021/12/29 02:27:44;;;;;;;;;;;9.30;99.90;;;;;;5114569;27;19976;-64
2021/12/29 02:30:09;;;;;;;;;;;9.30;99.90;;;;;;5106963;27;19920;-63
2021/12/29 02:32:35;;;;;;;;;;;9.30;99.90;;;;;;5107881;27;19916;-63
2021/12/29 02:35:00;;;;;;;;;;;9.30;99.90;;;;;;5111267;27;20053;-63
2021/12/29 02:37:26;;;;;;;;;;;9.40;99.90;;;;;;5087500;27;19920;-63
2021/12/29 02:39:52;;;;;;;;;;;9.40;99.90;;;;;;5101326;27;19975;-63
2021/12/29 02:42:19;;;;;;;;;;;9.40;99.90;;;;;;5105411;27;19923;-63
2021/12/29 02:44:46;;;;;;;;;;;9.40;99.90;;;;;;5120330;27;20194;-63
2021/12/29 02:47:11;;;;;;;;;;;9.40;99.90;;;;;;5109633;27;20191;-63
2021/12/29 02:49:37;;;;;;;;;;;9.40;99.90;;;;;;5114464;27;20015;-64
2021/12/29 02:52:03;;;;;;;;;;;9.40;99.90;;;;;;5112362;27;19916;-63
2021/12/29 02:54:28;;;;;;;;;;;9.40;99.90;;;;;;5111346;27;19946;-63
2021/12/29 02:56:54;;;;;;;;;;;9.40;99.90;;;;;;5105441;27;19923;-64
2021/12/29 02:59:21;;;;;;;;;;;9.40;99.90;;;;;;5111500;27;20925;-63
2021/12/29 03:01:47;;;;;;;;;;;9.40;99.90;;;;;;5111249;27;20418;-62
2021/12/29 03:04:13;;;;;;;;;;;9.40;99.90;;;;;;5116134;27;19924;-63
2021/12/29 03:06:39;;;;;;;;;;;9.50;99.90;;;;;;5111711;27;20363;-63
2021/12/29 03:09:06;;;;;;;;;;;9.50;99.90;;;;;;5107478;27;19919;-62
2021/12/29 03:11:31;;;;;;;;;;;9.50;99.90;;;;;;5111780;27;19963;-63
2021/12/29 03:13:57;;;;;;;;;;;9.40;99.90;;;;;;5115602;27;20290;-62
2021/12/29 03:16:22;;;;;;;;;;;9.40;99.90;;;;;;5114295;27;19920;-63
2021/12/29 03:18:48;;;;;;;;;;;9.50;99.90;;;;;;5106558;27;19920;-62
2021/12/29 03:21:14;;;;;;;;;;;9.50;99.90;;;;;;5112433;27;19965;-63
2021/12/29 03:23:39;;;;;;;;;;;9.50;99.90;;;;;;5111487;27;19935;-63
2021/12/29 03:26:06;;;;;;;;;;;9.50;99.90;;;;;;5094357;27;20015;-63
2021/12/29 03:28:32;;;;;;;;;;;9.40;99.90;;;;;;5102486;27;19916;-62
2021/12/29 03:30:58;;;;;;;;;;;9.50;99.90;;;;;;5109466;27;19919;-63
2021/12/29 03:33:25;;;;;;;;;;;9.50;99.90;;;;;;5104246;27;19927;-62
2021/12/29 03:35:52;;;;;;;;;;;9.50;99.90;;;;;;5107492;27;19916;-63
2021/12/29 03:38:19;;;;;;;;;;;9.40;99.90;;;;;;5092412;27;20375;-63
2021/12/29 03:40:45;;;;;;;;;;;9.40;99.90;;;;;;5108730;27;19920;-63
2021/12/29 03:43:11;;;;;;;;;;;9.40;99.90;;;;;;5110162;27;20000;-61
2021/12/29 03:45:37;;;;;;;;;;;9.40;99.90;;;;;;5109502;27;20534;-62
2021/12/29 03:48:07;;;;;;;;;;;9.40;99.90;;;;;;5107461;27;19912;-63
2021/12/29 03:50:32;;;;;;;;;;;9.40;99.90;;;;;;5113645;27;20007;-63
2021/12/29 03:52:58;;;;;;;;;;;9.40;99.90;;;;;;5109524;27;20636;-63
2021/12/29 03:55:23;;;;;;;;;;;9.40;99.90;;;;;;5110365;27;19915;-62
2021/12/29 03:57:49;;;;;;;;;;;9.40;99.90;;;;;;5115059;28;19919;-62
2021/12/29 04:00:15;;;;;;;;;;;9.40;99.90;;;;;;5116421;28;19967;-63
2021/12/29 04:02:41;;;;;;;;;;;9.40;99.90;;;;;;5101987;28;20408;-63
2021/12/29 04:05:08;;;;;;;;;;;9.40;99.90;;;;;;5107344;28;20414;-63
2021/12/29 04:07:34;;;;;;;;;;;9.40;99.90;;;;;;5117462;28;19922;-62
2021/12/29 04:09:59;;;;;;;;;;;9.40;99.90;;;;;;5110549;28;20564;-62
2021/12/29 04:12:25;;;;;;;;;;;9.40;99.90;;;;;;5119971;28;20080;-63
2021/12/29 04:14:50;;;;;;;;;;;9.40;99.90;;;;;;5111621;28;20115;-63
2021/12/29 04:17:18;;;;;;;;;;;9.40;99.90;;;;;;5109591;27;19919;-63
2021/12/29 04:22:29;;;;;;;;;;;9.40;99.90;;;;;;5100712;28;19965;-63
2021/12/29 04:24:55;;;;;;;;;;;9.30;99.90;;;;;;5099556;27;19916;-62
2021/12/29 04:27:23;;;;;;;;;;;9.30;99.90;;;;;;5099765;27;19931;-62
2021/12/29 04:29:48;;;;;;;;;;;9.20;99.90;;;;;;5106382;27;19915;-62
2021/12/29 04:32:14;;;;;;;;;;;9.20;99.90;;;;;;5104380;28;19923;-62
2021/12/29 04:34:40;;;;;;;;;;;9.30;99.90;;;;;;5086524;28;20639;-62
2021/12/29 04:37:05;;;;;;;;;;;9.30;99.90;;;;;;5097731;28;19955;-62
2021/12/29 04:39:31;;;;;;;;;;;9.30;99.90;;;;;;5105368;27;19960;-62
2021/12/29 04:41:56;;;;;;;;;;;9.20;99.90;;;;;;5105276;28;19939;-62
2021/12/29 04:44:22;;;;;;;;;;;9.20;99.90;;;;;;5103678;27;19931;-62
2021/12/29 04:46:47;;;;;;;;;;;9.10;99.90;;;;;;5103394;27;19923;-62
2021/12/29 04:49:14;;;;;;;;;;;9.10;99.90;;;;;;5104277;28;20324;-62
2021/12/29 04:51:47;;;;;;;;;;;9.20;99.90;;;;;;5092336;28;20510;-62
2021/12/29 04:54:13;;;;;;;;;;;9.20;99.90;;;;;;5078663;28;19923;-62
2021/12/29 04:56:39;;;;;;;;;;;9.20;99.90;;;;;;5095148;28;20338;-62
2021/12/29 04:59:04;;;;;;;;;;;9.20;99.90;;;;;;5086198;28;19946;-62
2021/12/29 05:01:30;;;;;;;;;;;9.20;99.90;;;;;;5095290;28;20020;-62
2021/12/29 05:03:56;;;;;;;;;;;9.20;99.90;;;;;;5085508;28;19927;-62
2021/12/29 05:09:05;;;;;;;;;;;9.30;99.90;;;;;;5093791;28;20101;-62
2021/12/29 05:11:31;;;;;;;;;;;9.30;99.90;;;;;;5101124;28;20006;-62
2021/12/29 05:13:56;;;;;;;;;;;9.20;99.90;;;;;;5097187;28;19958;-60
2021/12/29 05:16:27;;;;;;;;;;;9.20;99.90;;;;;;5071829;28;19924;-62
2021/12/29 05:18:53;;;;;;;;;;;9.20;99.90;;;;;;5071967;28;19924;-63
2021/12/29 05:21:19;;;;;;;;;;;9.20;99.90;;;;;;5091242;28;19916;-62
2021/12/29 05:23:45;;;;;;;;;;;9.20;99.90;;;;;;5092046;28;20403;-62
2021/12/29 05:26:10;;;;;;;;;;;9.20;99.90;;;;;;5095962;28;19916;-62
2021/12/29 05:28:36;;;;;;;;;;;9.20;99.90;;;;;;5098468;28;19916;-62
2021/12/29 05:31:01;;;;;;;;;;;9.20;99.90;;;;;;5094117;28;19916;-62
2021/12/29 05:33:27;;;;;;;;;;;9.10;99.90;;;;;;5092297;28;20326;-62
2021/12/29 05:35:52;;;;;;;;;;;9.10;99.90;;;;;;5093103;28;19916;-63
2021/12/29 05:38:18;;;;;;;;;;;9.10;99.90;;;;;;5083555;28;19981;-63
2021/12/29 05:40:43;;;;;;;;;;;9.10;99.90;;;;;;5091593;28;19923;-62
2021/12/29 05:43:09;;;;;;;;;;;9.10;99.90;;;;;;5070502;28;19923;-62
2021/12/29 05:45:34;;;;;;;;;;;9.10;99.90;;;;;;5091350;28;19920;-62
2021/12/29 05:48:01;;;;;;;;;;;9.20;99.90;;;;;;5103496;27;19927;-63
2021/12/29 05:50:29;;;;;;;;;;;9.10;99.90;;;;;;5101374;27;19951;-63
2021/12/29 05:52:55;;;;;;;;;;;9.20;99.90;;;;;;5091371;28;20299;-62
2021/12/29 05:55:21;;;;;;;;;;;9.20;99.90;;;;;;5094055;28;20111;-62
2021/12/29 05:57:46;;;;;;;;;;;9.20;99.90;;;;;;5101160;28;20065;-62
2021/12/29 06:00:13;;;;;;;;;;;9.20;99.90;;;;;;5088785;28;19920;-62
2021/12/29 06:02:39;;;;;;;;;;;9.20;99.90;;;;;;5092899;28;19920;-63
2021/12/29 06:05:06;;;;;;;;;;;9.20;99.90;;;;;;5085119;28;19919;-62
2021/12/29 06:07:32;;;;;;;;;;;9.20;99.90;;;;;;5081557;28;19920;-62
2021/12/29 06:09:58;;;;;;;;;;;9.20;99.90;;;;;;5097468;28;19916;-62
2021/12/29 06:12:23;;;;;;;;;;;9.20;99.90;;;;;;5097477;28;19924;-62
2021/12/29 06:14:49;;;;;;;;;;;9.10;99.90;;;;;;5090268;28;19916;-62
2021/12/29 06:17:14;;;;;;;;;;;9.20;99.90;;;;;;5089685;28;19978;-62
2021/12/29 06:19:40;;;;;;;;;;;9.20;99.90;;;;;;5083317;28;21117;-62
2021/12/29 06:22:09;;;;;;;;;;;9.30;99.90;;;;;;5085227;28;19928;-62
2021/12/29 06:24:34;;;;;;;;;;;9.30;99.90;;;;;;5095440;28;20673;-62
2021/12/29 06:27:00;;;;;;;;;;;9.30;99.90;;;;;;5068410;28;19998;-61
2021/12/29 06:29:25;;;;;;;;;;;9.30;99.90;;;;;;5092363;28;19958;-61
2021/12/29 06:31:51;;;;;;;;;;;9.30;99.90;;;;;;5084957;28;19920;-62
2021/12/29 06:34:17;;;;;;;;;;;9.40;99.90;;;;;;5095050;28;19991;-62
2021/12/29 06:36:43;;;;;;;;;;;9.30;99.90;;;;;;5067122;28;19920;-63
2021/12/29 06:39:08;;;;;;;;;;;9.30;99.90;;;;;;5096271;28;19919;-61
2021/12/29 06:41:34;;;;;;;;;;;9.30;99.90;;;;;;5093802;28;20367;-61
2021/12/29 06:43:59;;;;;;;;;;;9.30;99.90;;;;;;5089730;28;19916;-61
2021/12/29 06:46:25;;;;;;;;;;;9.30;99.90;;;;;;5084719;28;19920;-62
2021/12/29 06:48:50;;;;;;;;;;;9.30;99.90;;;;;;5091256;28;20445;-62
2021/12/29 06:51:16;;;;;;;;;;;9.40;99.90;;;;;;5067949;28;19920;-62
2021/12/29 06:53:41;;;;;;;;;;;9.40;99.90;;;;;;5079523;28;19916;-62
2021/12/29 06:56:07;;;;;;;;;;;9.20;99.90;;;;;;5083114;28;19969;-62
2021/12/29 06:58:33;;;;;;;;;;;9.30;99.90;;;;;;5082317;28;19920;-62
2021/12/29 07:00:59;;;;;;;;;;;9.30;99.90;;;;;;5085400;28;20379;-63
2021/12/29 07:03:25;;;;;;;;;;;9.30;99.90;;;;;;5089022;28;19946;-63
2021/12/29 07:05:52;;;;;;;;;;;9.30;99.90;;;;;;5079564;28;19925;-62
2021/12/29 07:08:18;;;;;;;;;;;9.30;99.90;;;;;;5074165;28;19921;-62
2021/12/29 07:10:43;;;;;;;;;;;9.40;99.90;;;;;;5082895;28;19927;-63
2021/12/29 07:13:09;;;;;;;;;;;9.40;99.90;;;;;;5084423;28;20461;-62
2021/12/29 07:15:34;;;;;;;;;;;9.40;99.90;;;;;;5084095;28;19920;-63
2021/12/29 07:18:00;;;;;;;;;;;9.40;99.90;;;;;;5086921;28;19916;-62
2021/12/29 07:20:25;;;;;;;;;;;9.40;99.90;;;;;;5071603;28;19950;-62
2021/12/29 07:22:51;;;;;;;;;;;9.40;99.90;;;;;;5081040;28;19969;-62
2021/12/29 07:25:16;;;;;;;;;;;9.40;99.90;;;;;;5076446;28;19952;-63
2021/12/29 07:27:42;;;;;;;;;;;9.40;99.90;;;;;;5089045;28;19922;-62
2021/12/29 07:30:08;;;;;;;;;;;9.30;99.90;;;;;;5082395;28;19951;-62
2021/12/29 07:32:33;;;;;;;;;;;9.40;99.90;;;;;;5068562;28;19946;-63
2021/12/29 07:34:59;;;;;;;;;;;9.30;99.90;;;;;;5082666;28;20613;-63
2021/12/29 07:37:24;;;;;;;;;;;9.30;99.90;;;;;;5081771;28;19916;-63
2021/12/29 07:39:50;;;;;;;;;;;9.30;99.90;;;;;;5085806;28;19920;-62
2021/12/29 07:42:15;;;;;;;;;;;9.20;99.90;;;;;;5079470;28;19984;-62
2021/12/29 07:44:43;;;;;;;;;;;9.30;99.90;;;;;;5082926;28;19951;-63
2021/12/29 07:47:10;;;;;;;;;;;9.30;99.90;;;;;;5087896;28;20018;-62
2021/12/29 07:49:35;;;;;;;;;;;9.30;99.90;;;;;;5084350;28;20341;-63
2021/12/29 07:52:01;;;;;;;;;;;9.30;99.90;;;;;;5059419;28;19920;-63
2021/12/29 07:54:26;;;;;;;;;;;9.30;99.90;;;;;;5081375;28;19995;-63
2021/12/29 07:56:52;;;;;;;;;;;9.30;99.90;;;;;;5088410;28;20022;-62
2021/12/29 07:59:19;;;;;;;;;;;9.30;99.90;;;;;;5094663;28;19973;-63
2021/12/29 08:01:45;;;;;;;;;;;9.30;99.90;;;;;;5090943;28;19923;-62
2021/12/29 08:04:12;;;;;;;;;;;9.30;99.90;;;;;;5073580;28;19912;-63
2021/12/29 08:06:38;;;;;;;;;;;9.30;99.90;;;;;;5074482;28;20396;-63
2021/12/29 08:09:04;;;;;;;;;;;9.30;99.90;;;;;;5087654;28;19994;-62
2021/12/29 08:11:29;;;;;;;;;;;9.30;99.90;;;;;;5084840;28;20442;-63
2021/12/29 08:13:55;;;;;;;;;;;9.30;99.90;;;;;;5091430;28;20014;-62
2021/12/29 08:16:21;;;;;;;;;;;9.20;99.90;;;;;;5085970;28;19958;-63
2021/12/29 08:18:48;;;;;;;;;;;9.20;99.90;;;;;;5090353;28;20029;-62
2021/12/29 08:21:14;;;;;;;;;;;9.20;99.90;;;;;;5092541;28;19978;-63
2021/12/29 08:23:39;;;;;;;;;;;9.30;99.90;;;;;;5088121;28;20004;-62
2021/12/29 08:26:05;;;;;;;;;;;9.20;99.90;;;;;;5079626;28;19916;-62
2021/12/29 08:28:30;;;;;;;;;;;9.30;99.90;;;;;;5090976;28;19923;-62
2021/12/29 08:30:56;;;;;;;;;;;9.30;99.90;;;;;;5076950;28;19966;-63
2021/12/29 08:33:22;;;;;;;;;;;9.40;99.90;;;;;;5092212;28;20019;-62
2021/12/29 08:35:47;;;;;;;;;;;9.30;99.90;;;;;;5096461;28;19955;-62
2021/12/29 08:38:13;;;;;;;;;;;9.40;99.90;;;;;;5082675;28;20008;-62
2021/12/29 08:40:39;;;;;;;;;;;9.40;99.90;;;;;;5092384;28;19982;-62
2021/12/29 08:43:04;;;;;;;;;;;9.50;99.90;;;;;;5111879;27;20300;-63
2021/12/29 08:45:30;;;;;;;;;;;9.50;99.90;;;;;;5105918;27;19989;-62
2021/12/29 08:47:58;;;;;;;;;;;9.50;99.90;;;;;;5091518;28;19950;-63
2021/12/29 08:50:25;;;;;;;;;;;9.50;99.90;;;;;;5097479;27;19923;-62
2021/12/29 08:52:51;;;;;;;;;;;9.50;99.90;;;;;;5104680;28;19916;-62
2021/12/29 08:55:17;;;;;;;;;;;9.40;99.90;;;;;;5106620;28;20381;-63
2021/12/29 08:57:43;;;;;;;;;;;9.40;99.90;;;;;;5100433;28;19916;-62
2021/12/29 09:00:10;;;;;;;;;;;9.50;99.90;;;;;;5097707;27;19919;-62
2021/12/29 09:02:36;;;;;;;;;;;9.60;99.90;;;;;;5097724;28;20196;-63
2021/12/29 09:05:02;;;;;;;;;;;9.70;99.90;;;;;;5099406;28;19973;-62
2021/12/29 09:07:27;;;;;;;;;;;9.70;99.90;;;;;;5102100;27;19919;-63
2021/12/29 09:09:53;;;;;;;;;;;9.80;99.90;;;;;;5110589;28;19919;-62
2021/12/29 09:12:18;;;;;;;;;;;9.70;99.90;;;;;;5098664;28;19989;-64
2021/12/29 09:14:45;;;;;;;;;;;9.80;99.90;;;;;;5102869;28;20567;-64
2021/12/29 09:17:11;;;;;;;;;;;9.90;99.90;;;;;;5099144;27;19924;-63
2021/12/29 09:19:40;;;;;;;;;;;9.90;99.90;;;;;;5094670;27;20307;-64
2021/12/29 09:22:06;;;;;;;;;;;9.90;99.90;;;;;;5073817;28;19924;-64
2021/12/29 09:24:31;;;;;;;;;;;9.90;99.90;;;;;;5116336;27;20350;-65
2021/12/29 09:26:57;;;;;;;;;;;9.90;99.90;;;;;;5078034;28;20033;-65
2021/12/29 09:29:22;;;;;;;;;;;9.80;99.90;;;;;;5114630;27;21338;-65
2021/12/29 09:31:48;;;;;;;;;;;9.80;99.90;;;;;;5092064;27;20072;-65
2021/12/29 09:34:14;;;;;;;;;;;10.00;99.90;;;;;;5095503;27;19935;-64
2021/12/29 09:36:39;;;;;;;;;;;10.00;99.90;;;;;;5106065;27;19932;-61
2021/12/29 09:39:05;;;;;;;;;;;10.00;99.90;;;;;;5115739;27;20370;-60
2021/12/29 09:41:31;;;;;;;;;;;9.90;99.90;;;;;;5116542;27;19995;-61
2021/12/29 09:43:56;;;;;;;;;;;9.90;99.90;;;;;;5097638;27;19919;-61
2021/12/29 09:46:22;;;;;;;;;;;9.80;99.90;;;;;;5090623;27;19930;-61
2021/12/29 09:48:49;;;;;;;;;;;9.70;99.90;;;;;;5115395;27;19916;-60
2021/12/29 09:51:15;;;;;;;;;;;9.90;99.90;;;;;;5095817;27;19916;-61
2021/12/29 09:53:41;;;;;;;;;;;9.90;99.90;;;;;;5091498;27;19920;-60
2021/12/29 09:56:09;;;;;;;;;;;10.00;99.90;;;;;;5089529;27;20367;-60
2021/12/29 09:58:35;;;;;;;;;;;10.00;99.90;;;;;;5092362;27;20535;-61
2021/12/29 10:01:04;;;;;;;;;;;10.10;99.90;;;;;;5086934;27;20383;-61
2021/12/29 10:03:30;;;;;;;;;;;10.10;99.90;;;;;;5095772;27;19919;-61
2021/12/29 10:05:58;;;;;;;;;;;9.90;99.90;;;;;;5090963;27;19924;-60
2021/12/29 10:08:26;;;;;;;;;;;9.90;99.90;;;;;;5101302;27;19916;-62
2021/12/29 10:10:53;;;;;;;;;;;9.90;99.90;;;;;;5114897;27;19976;-61
2021/12/29 10:13:18;;;;;;;;;;;9.80;99.90;;;;;;5126208;27;19977;-60
2021/12/29 10:15:54;;;;;;;;;;;9.80;99.90;;;;;;5108696;27;19952;-61
2021/12/29 10:18:21;;;;;;;;;;;10.00;99.90;;;;;;5109200;27;19951;-61
2021/12/29 10:20:55;;;;;;;;;;;9.90;99.90;;;;;;5114319;27;20446;-61
2021/12/29 10:23:26;;;;;;;;;;;10.10;99.90;;;;;;5106665;27;23350;-61
2021/12/29 10:25:52;;;;;;;;;;;10.00;99.90;;;;;;5100938;27;19939;-61
2021/12/29 10:28:22;;;;;;;;;;;10.10;99.90;;;;;;5092059;27;19958;-61
2021/12/29 10:30:53;;;;;;;;;;;10.10;99.90;;;;;;5076467;27;20020;-62
2021/12/29 10:33:22;;;;;;;;;;;10.10;99.90;;;;;;5087882;27;19923;-60
2021/12/29 10:35:47;;;;;;;;;;;10.00;99.90;;;;;;5104335;27;19943;-61
2021/12/29 10:38:19;;;;;;;;;;;10.10;99.90;;;;;;5106020;27;20437;-61
2021/12/29 10:40:44;;;;;;;;;;;10.10;99.90;;;;;;5113817;27;20424;-60
2021/12/29 10:43:10;;;;;;;;;;;10.00;99.90;;;;;;5108425;27;19927;-62
2021/12/29 10:45:38;;;;;;;;;;;10.10;99.90;;;;;;5096108;27;19916;-61
2021/12/29 10:48:24;;;;;;;;;;;10.10;99.90;;;;;;5112887;27;19963;-61
2021/12/29 10:51:19;;;;;;;;;;;10.20;99.90;;;;;;5090262;28;20287;-62
2021/12/29 10:53:45;;;;;;;;;;;10.20;99.90;;;;;;5090157;27;20400;-61
2021/12/29 10:56:23;;;;;;;;;;;10.20;99.90;;;;;;5080667;27;19920;-61
2021/12/29 10:58:50;;;;;;;;;;;10.20;99.90;;;;;;5107258;27;19938;-62
2021/12/29 11:01:16;;;;;;;;;;;10.20;99.90;;;;;;5103780;27;20056;-61
2021/12/29 11:03:43;;;;;;;;;;;10.20;99.90;;;;;;5105756;27;20010;-61
2021/12/29 11:06:11;;;;;;;;;;;10.20;99.90;;;;;;5110392;27;20425;-61
2021/12/29 11:08:47;;;;;;;;;;;10.20;99.90;;;;;;5120183;27;20020;-61
2021/12/29 11:11:13;;;;;;;;;;;10.20;99.90;;;;;;5111400;27;19923;-61
2021/12/29 11:13:40;;;;;;;;;;;10.20;99.90;;;;;;5114792;27;20378;-61
2021/12/29 11:16:05;;;;;;;;;;;10.10;99.90;;;;;;5114759;27;20362;-62
2021/12/29 11:18:40;;;;;;;;;;;10.20;99.90;;;;;;5109214;27;19958;-62
2021/12/29 11:21:05;;;;;;;;;;;10.30;99.90;;;;;;5106532;27;19919;-61
2021/12/29 11:23:31;;;;;;;;;;;10.30;99.90;;;;;;5107201;27;19915;-61
2021/12/29 11:26:00;;;;;;;;;;;10.30;99.90;;;;;;5094975;27;19930;-61
2021/12/29 11:28:30;;;;;;;;;;;10.30;99.90;;;;;;5107777;27;19927;-61
2021/12/29 11:30:57;;;;;;;;;;;10.20;99.90;;;;;;5092481;27;20367;-61
2021/12/29 11:33:23;;;;;;;;;;;10.30;99.90;;;;;;5110066;27;19920;-62
2021/12/29 11:35:50;;;;;;;;;;;10.30;99.90;;;;;;5110578;27;19916;-61
2021/12/29 11:38:17;;;;;;;;;;;10.20;99.90;;;;;;5102635;27;20624;-61
2021/12/29 11:40:47;;;;;;;;;;;10.20;99.90;;;;;;5089100;27;20316;-62
2021/12/29 11:43:14;;;;;;;;;;;10.10;99.90;;;;;;5108280;27;20083;-61
2021/12/29 11:45:40;;;;;;;;;;;10.20;99.90;;;;;;5100902;27;19942;-61
2021/12/29 11:48:08;;;;;;;;;;;10.30;99.90;;;;;;5104860;27;20239;-61
2021/12/29 11:50:35;;;;;;;;;;;10.30;99.90;;;;;;5110968;27;20842;-61
2021/12/29 11:53:04;;;;;;;;;;;10.30;99.90;;;;;;5095423;27;19923;-61
2021/12/29 11:55:43;;;;;;;;;;;10.20;99.90;;;;;;5094370;28;20445;-62
2021/12/29 11:58:10;;;;;;;;;;;10.20;99.90;;;;;;5093360;27;20346;-62
2021/12/29 12:00:36;;;;;;;;;;;10.20;99.90;;;;;;5105098;27;20354;-61
2021/12/29 12:03:06;;;;;;;;;;;10.30;99.90;;;;;;5106173;28;19930;-62
2021/12/29 12:05:36;;;;;;;;;;;10.30;99.90;;;;;;5108052;27;20401;-62
2021/12/29 12:08:09;;;;;;;;;;;10.20;99.90;;;;;;5103754;28;20362;-62
2021/12/29 12:10:35;;;;;;;;;;;10.20;99.90;;;;;;5104175;28;19923;-61
2021/12/29 12:13:04;;;;;;;;;;;10.10;99.90;;;;;;5108396;28;20282;-62
2021/12/29 12:15:31;;;;;;;;;;;10.20;99.90;;;;;;5107212;28;19951;-62
2021/12/29 12:17:56;;;;;;;;;;;10.20;99.90;;;;;;5106767;28;19916;-61
2021/12/29 12:20:22;;;;;;;;;;;10.30;99.90;;;;;;5103932;28;19935;-62
2021/12/29 12:22:51;;;;;;;;;;;10.30;99.90;;;;;;5104309;28;19996;-62
2021/12/29 12:25:18;;;;;;;;;;;10.20;99.90;;;;;;5103035;28;20609;-61
2021/12/29 12:27:44;;;;;;;;;;;10.20;99.90;;;;;;5101645;28;19916;-61
2021/12/29 12:30:14;;;;;;;;;;;10.20;99.90;;;;;;5110328;28;19916;-62
2021/12/29 12:32:53;;;;;;;;;;;10.10;99.90;;;;;;5102440;27;19916;-61
2021/12/29 12:35:30;;;;;;;;;;;10.20;99.90;;;;;;5102550;28;19916;-61
2021/12/29 12:37:56;;;;;;;;;;;10.30;99.90;;;;;;5099339;28;20382;-62
2021/12/29 12:40:24;;;;;;;;;;;10.20;99.90;;;;;;5100902;28;19927;-62
2021/12/29 12:43:11;;;;;;;;;;;10.20;99.90;;;;;;5102217;28;20429;-61
2021/12/29 12:45:39;;;;;;;;;;;10.10;99.90;;;;;;5101833;28;20345;-62
2021/12/29 12:48:07;;;;;;;;;;;10.20;99.90;;;;;;5100090;27;20451;-61
2021/12/29 12:50:33;;;;;;;;;;;10.20;99.90;;;;;;5109554;27;19919;-61
2021/12/29 12:52:58;;;;;;;;;;;10.20;99.90;;;;;;5113327;27;19915;-61
2021/12/29 12:55:24;;;;;;;;;;;10.30;99.90;;;;;;5106347;27;20271;-62
2021/12/29 12:57:50;;;;;;;;;;;10.20;99.90;;;;;;5097347;27;19958;-61
2021/12/29 13:00:16;;;;;;;;;;;10.30;99.90;;;;;;5106421;27;20467;-62
2021/12/29 13:03:02;;;;;;;;;;;10.30;99.90;;;;;;5108792;27;19955;-62
2021/12/29 13:05:40;;;;;;;;;;;10.20;99.90;;;;;;5094773;27;20393;-61
2021/12/29 13:08:10;;;;;;;;;;;10.20;99.90;;;;;;5106094;27;20368;-62
2021/12/29 13:10:43;;;;;;;;;;;10.40;99.90;;;;;;5121622;27;19916;-61
2021/12/29 13:13:17;;;;;;;;;;;10.40;99.90;;;;;;5104470;27;19968;-62
2021/12/29 13:15:44;;;;;;;;;;;10.40;99.90;;;;;;5112425;27;20403;-62
2021/12/29 13:18:10;;;;;;;;;;;10.40;99.90;;;;;;5104200;27;20006;-61
2021/12/29 13:20:36;;;;;;;;;;;10.40;99.90;;;;;;5087216;28;20015;-60
2021/12/29 13:23:02;;;;;;;;;;;10.40;99.90;;;;;;5095569;27;19950;-61
2021/12/29 13:25:31;;;;;;;;;;;10.30;99.90;;;;;;5106537;27;19974;-61
2021/12/29 13:28:01;;;;;;;;;;;10.30;99.90;;;;;;5107965;27;19930;-62
2021/12/29 13:30:28;;;;;;;;;;;10.20;99.90;;;;;;5113818;27;19923;-61
2021/12/29 13:32:56;;;;;;;;;;;10.20;99.90;;;;;;5113505;27;19959;-61
2021/12/29 13:35:26;;;;;;;;;;;10.20;99.90;;;;;;5112873;27;19946;-60
2021/12/29 13:37:54;;;;;;;;;;;10.20;99.90;;;;;;5112604;27;19924;-61
2021/12/29 13:40:26;;;;;;;;;;;10.20;99.90;;;;;;5109753;27;20394;-60
2021/12/29 13:42:51;;;;;;;;;;;10.30;99.90;;;;;;5110624;27;20637;-61
2021/12/29 13:45:23;;;;;;;;;;;10.30;99.90;;;;;;5108558;27;19924;-62
2021/12/29 13:47:49;;;;;;;;;;;10.30;99.90;;;;;;5102636;27;20010;-62
2021/12/29 13:50:15;;;;;;;;;;;10.20;99.90;;;;;;5099782;27;20043;-61
2021/12/29 13:52:52;;;;;;;;;;;10.10;99.90;;;;;;5104678;27;19965;-62
2021/12/29 13:55:44;;;;;;;;;;;10.10;99.90;;;;;;5107698;27;19974;-60
2021/12/29 13:58:13;;;;;;;;;;;10.00;99.90;;;;;;5092400;27;20597;-61
2021/12/29 14:00:39;;;;;;;;;;;10.00;99.90;;;;;;5110149;27;20462;-61
2021/12/29 14:03:05;;;;;;;;;;;10.20;99.90;;;;;;5100167;27;19926;-62
2021/12/29 14:05:40;;;;;;;;;;;10.10;99.90;;;;;;5108302;27;19927;-61
2021/12/29 14:08:07;;;;;;;;;;;10.10;99.90;;;;;;5104863;27;20055;-60
2021/12/29 14:10:33;;;;;;;;;;;10.20;99.90;;;;;;5115628;27;20670;-61
2021/12/29 14:13:09;;;;;;;;;;;10.10;99.90;;;;;;5109598;27;19920;-61
2021/12/29 14:15:35;;;;;;;;;;;10.10;99.90;;;;;;5116809;27;19949;-62
2021/12/29 14:18:10;;;;;;;;;;;10.10;99.90;;;;;;5108574;27;19920;-61
2021/12/29 14:20:36;;;;;;;;;;;10.10;99.90;;;;;;5091823;28;20764;-61
2021/12/29 14:23:02;;;;;;;;;;;10.00;99.90;;;;;;5115342;27;19991;-60
2021/12/29 14:25:32;;;;;;;;;;;9.90;99.90;;;;;;5110978;27;19922;-61
2021/12/29 14:27:58;;;;;;;;;;;10.00;99.90;;;;;;5112281;27;19951;-61
2021/12/29 14:30:26;;;;;;;;;;;10.10;99.90;;;;;;5110183;27;20066;-61
2021/12/29 14:32:53;;;;;;;;;;;10.10;99.90;;;;;;5111931;27;19923;-61
2021/12/29 14:35:18;;;;;;;;;;;10.00;99.90;;;;;;5103685;27;20044;-61
2021/12/29 14:37:44;;;;;;;;;;;9.90;99.90;;;;;;5107433;27;20394;-62